TimeCDT,TemperatureF,Dew PointF,Humidity,Sea Level PressureIn,VisibilityMPH,Wind Direction,Wind SpeedMPH,Gust SpeedMPH,PrecipitationIn,Events,Conditions,WindDirDegrees,DateUTC
12:55 AM,46.0,30.6,55,30.06,10.0,Variable,3.5,-,N/A,,Clear,0,2012-10-30 05:55:00
1:55 AM,42.8,31.6,65,30.04,10.0,NE,3.5,-,N/A,,Clear,50,2012-10-30 06:55:00
2:55 AM,44.6,31.6,60,30.03,10.0,NE,4.6,-,N/A,,Mostly Cloudy,50,2012-10-30 07:55:00
3:55 AM,42.8,32.7,68,30.02,10.0,North,6.9,-,N/A,,Partly Cloudy,10,2012-10-30 08:55:00
4:55 AM,43.2,33.3,68,30.01,10.0,North,4.6,-,N/A,,Overcast,10,2012-10-30 09:55:00
5:55 AM,43.3,34.0,70,30.00,10.0,NNE,6.9,-,N/A,,Mostly Cloudy,20,2012-10-30 10:55:00
6:55 AM,46.0,32.7,60,29.98,10.0,Variable,3.5,-,N/A,,Overcast,0,2012-10-30 11:55:00
7:55 AM,43.3,34.0,70,29.99,10.0,NNE,10.4,-,N/A,,Overcast,30,2012-10-30 12:55:00
8:55 AM,46.0,34.3,64,30.00,10.0,NNE,5.8,-,N/A,,Mostly Cloudy,30,2012-10-30 13:55:00
9:55 AM,48.9,33.4,55,29.99,10.0,East,5.8,-,N/A,,Mostly Cloudy,90,2012-10-30 14:55:00
10:55 AM,52.3,34.3,50,29.99,10.0,East,6.9,-,N/A,,Partly Cloudy,80,2012-10-30 15:55:00
11:55 AM,58.5,35.1,42,29.98,10.0,East,9.2,-,N/A,,Clear,100,2012-10-30 16:55:00
12:55 PM,62.2,34.7,36,29.97,10.0,ENE,12.7,20.7,N/A,,Clear,60,2012-10-30 17:55:00
1:55 PM,62.6,33.8,34,29.97,10.0,ENE,11.5,-,N/A,,Clear,60,2012-10-30 18:55:00
2:55 PM,63.7,33.1,32,29.96,10.0,ENE,12.7,19.6,N/A,,Clear,70,2012-10-30 19:55:00
3:55 PM,63.3,32.5,32,29.96,10.0,East,11.5,-,N/A,,Clear,80,2012-10-30 20:55:00
4:55 PM,62.4,32.0,32,29.97,10.0,ENE,11.5,-,N/A,,Clear,70,2012-10-30 21:55:00
5:55 PM,59.7,31.8,35,29.99,10.0,East,6.9,-,N/A,,Clear,80,2012-10-30 22:55:00
6:55 PM,51.4,31.6,47,30.01,10.0,NE,6.9,-,N/A,,Clear,50,2012-10-30 23:55:00
7:55 PM,50.9,31.1,47,30.03,10.0,ENE,4.6,-,N/A,,Clear,60,2012-10-31 00:55:00
8:55 PM,46.9,30.4,53,30.04,10.0,Calm,Calm,-,N/A,,Clear,0,2012-10-31 01:55:00
9:55 PM,46.9,30.6,53,30.04,10.0,Calm,Calm,-,N/A,,Clear,0,2012-10-31 02:55:00
10:55 PM,41.0,31.6,69,30.05,10.0,NE,3.5,-,N/A,,Clear,50,2012-10-31 03:55:00
11:55 PM,38.5,32.7,80,30.05,10.0,Calm,Calm,-,N/A,,Clear,0,2012-10-31 04:55:00